Overview Statistics Trail Chart Weather Telemetry Raw packets
 

This is the latest recevied weather packets stored in our database for station/object 4S6DRJ-13. If no packets are shown the sender has not sent any weather packets the latest 10 day(s).

<< 257 258 259 260 261 262 263 >>
Time Temp. Humidity Pressure Rain* Wind** Luminosity Snow
1788089785 30° C 73% 1008.3 hPa 0 mm 2.68 m/s, 156° 74 W/m² -
1788089723 30° C 74% 1008.2 hPa 0 mm 3.13 m/s, 322° 72 W/m² -
1788089662 30° C 74% 1008 hPa 0 mm 0.45 m/s, 130° 79 W/m² -
1788089602 30° C 74% 1008.1 hPa 0 mm 0.89 m/s, 262° 107 W/m² -
1788089540 30° C 74% 1008.2 hPa 0 mm 0.89 m/s, 157° 110 W/m² -
1788089479 30° C 74% 1008.1 hPa 0 mm 1.79 m/s, 242° 115 W/m² -
1788089418 30° C 74% 1008.1 hPa 0 mm 0.89 m/s, 222° 118 W/m² -
1788089356 30° C 74% 1008 hPa 0 mm 1.34 m/s, 212° 141 W/m² -
1788089296 30° C 73% 1008.2 hPa 0 mm 2.68 m/s, 208° 253 W/m² -
1788089235 30° C 74% 1008.1 hPa 0 mm 1.79 m/s, 245° 259 W/m² -
1788089174 30° C 73% 1008 hPa 0 mm 2.68 m/s, 252° 204 W/m² -
1788089113 30° C 73% 1008.1 hPa 0 mm 0.89 m/s, 6° 114 W/m² -
1788089052 30° C 73% 1008.3 hPa 0 mm 0.89 m/s, 113° 119 W/m² -
1788088991 30° C 73% 1008.1 hPa 0 mm 0.89 m/s, 267° 132 W/m² -
1788088930 30° C 73% 1008 hPa 0 mm 2.24 m/s, 208° 159 W/m² -
1788088869 30° C 73% 1008.1 hPa 0 mm 2.24 m/s, 211° 342 W/m² -
1788088808 30° C 74% 1008.1 hPa 0 mm 1.79 m/s, 305° 360 W/m² -
1788088747 30° C 74% 1008 hPa 0 mm 0.89 m/s, 224° 343 W/m² -
1788088686 30° C 74% 1008 hPa 0 mm 2.24 m/s, 212° 311 W/m² -
1788088625 30° C 73% 1007.9 hPa 0 mm 2.68 m/s, 255° 191 W/m² -
1788088565 30° C 73% 1007.9 hPa 0 mm 4.47 m/s, 331° 177 W/m² -
1788088503 30.56° C 73% 1008 hPa 0 mm 0.89 m/s, 258° 163 W/m² -
1788088442 30.56° C 73% 1007.9 hPa 0 mm 2.24 m/s, 283° 164 W/m² -
1788088381 30.56° C 73% 1007.9 hPa 0 mm 2.24 m/s, 288° 141 W/m² -
1788088321 30.56° C 72% 1007.9 hPa 0 mm 2.24 m/s, 249° 157 W/m² -

* Rain latest hour (hover to see other rain measurements)
** Current wind speed in m/s (hover to see current wind gust speed)